createdAt,value
2024-05-09T00:00:54.968Z,16.60
2024-05-09T00:04:24.133Z,16.54
2024-05-09T00:07:38.890Z,16.47
2024-05-09T00:11:00.665Z,16.44
2024-05-09T00:14:29.628Z,16.33
2024-05-09T00:17:58.779Z,16.20
2024-05-09T00:21:27.736Z,16.14
2024-05-09T00:24:57.466Z,16.02
2024-05-09T00:28:26.563Z,15.93
2024-05-09T00:31:38.495Z,15.88
2024-05-09T00:35:06.091Z,15.84
2024-05-09T00:38:35.419Z,15.80
2024-05-09T00:42:04.279Z,15.79
2024-05-09T00:45:31.918Z,15.76
2024-05-09T00:49:00.896Z,15.74
2024-05-09T00:52:29.921Z,15.72
2024-05-09T00:55:48.909Z,15.71
2024-05-09T00:59:21.322Z,15.69
2024-05-09T01:02:43.363Z,15.67
2024-05-09T01:06:13.507Z,15.61
2024-05-09T01:09:42.184Z,15.55
2024-05-09T01:13:11.377Z,15.52
2024-05-09T01:16:40.496Z,15.51
2024-05-09T01:20:12.895Z,15.48
2024-05-09T01:23:48.203Z,15.42
2024-05-09T01:27:17.301Z,15.40
2024-05-09T01:30:46.200Z,15.37
2024-05-09T01:34:15.204Z,15.34
2024-05-09T01:37:45.389Z,15.29
2024-05-09T01:41:06.942Z,15.27
2024-05-09T01:44:28.636Z,15.24
2024-05-09T01:47:57.640Z,15.22
2024-05-09T01:51:26.542Z,15.20
2024-05-09T01:54:49.179Z,15.16
2024-05-09T01:58:19.916Z,15.12
2024-05-09T02:01:56.682Z,15.05
2024-05-09T02:05:30.298Z,14.98
2024-05-09T02:08:59.123Z,14.94
2024-05-09T02:12:29.645Z,14.90
2024-05-09T02:15:58.710Z,14.88
2024-05-09T02:19:27.975Z,14.87
2024-05-09T02:22:56.808Z,14.86
2024-05-09T02:26:25.946Z,14.86
2024-05-09T02:29:55.097Z,14.85
2024-05-09T02:33:24.043Z,14.85
2024-05-09T02:36:45.924Z,14.85
2024-05-09T02:40:14.854Z,14.83
2024-05-09T02:43:40.256Z,14.80
2024-05-09T02:47:09.455Z,14.76
2024-05-09T02:50:39.111Z,14.74
2024-05-09T02:54:08.994Z,14.70
2024-05-09T02:57:28.272Z,14.66
2024-05-09T03:00:57.402Z,14.62
2024-05-09T03:04:27.419Z,14.60
2024-05-09T03:07:56.234Z,14.60
2024-05-09T03:11:25.503Z,14.59
2024-05-09T03:14:57.161Z,14.57
2024-05-09T03:18:16.546Z,14.54
2024-05-09T03:21:45.859Z,14.48
2024-05-09T03:25:05.333Z,14.45
2024-05-09T03:28:34.314Z,14.44
2024-05-09T03:32:04.559Z,14.43
2024-05-09T03:35:33.616Z,14.41
2024-05-09T03:39:02.386Z,14.37
2024-05-09T03:42:31.373Z,14.34
2024-05-09T03:46:00.544Z,14.28
2024-05-09T03:49:31.085Z,14.23
2024-05-09T03:52:52.739Z,14.16
2024-05-09T03:56:05.923Z,14.09
2024-05-09T03:59:34.545Z,14.02
2024-05-09T04:02:53.376Z,13.94
2024-05-09T04:06:22.673Z,13.89
2024-05-09T04:09:42.032Z,13.84
2024-05-09T04:13:01.531Z,13.77
2024-05-09T04:16:31.142Z,13.70
2024-05-09T04:20:00.327Z,13.64
2024-05-09T04:23:29.175Z,13.56
2024-05-09T04:26:48.330Z,13.48
2024-05-09T04:30:25.557Z,13.44
2024-05-09T04:33:47.991Z,13.40
2024-05-09T04:37:16.455Z,13.35
2024-05-09T04:40:45.917Z,13.28
2024-05-09T04:44:18.288Z,13.20
2024-05-09T04:47:47.909Z,13.15
2024-05-09T04:51:06.838Z,13.11
2024-05-09T04:54:36.825Z,13.07
2024-05-09T04:58:00.399Z,13.04
2024-05-09T05:01:29.446Z,13.02
2024-05-09T05:04:59.064Z,13.00
2024-05-09T05:08:27.390Z,12.97
2024-05-09T05:11:57.500Z,12.95
2024-05-09T05:15:26.492Z,12.89
2024-05-09T05:18:59.357Z,12.84
2024-05-09T05:22:21.540Z,12.77
2024-05-09T05:25:50.519Z,12.71
2024-05-09T05:29:20.990Z,12.67
2024-05-09T05:32:50.321Z,12.65
2024-05-09T05:36:19.705Z,12.64
2024-05-09T05:39:48.732Z,12.60
2024-05-09T05:43:18.043Z,12.58
2024-05-09T05:46:46.803Z,12.55
2024-05-09T05:50:24.248Z,12.49
2024-05-09T05:54:00.504Z,12.43
2024-05-09T05:57:30.413Z,12.37
2024-05-09T06:00:59.747Z,12.28
2024-05-09T06:04:28.711Z,12.16
2024-05-09T06:07:56.177Z,12.02
2024-05-09T06:11:25.238Z,11.86
2024-05-09T06:14:54.301Z,11.70
2024-05-09T06:18:24.883Z,11.58
2024-05-09T06:21:52.610Z,11.45
2024-05-09T06:25:21.339Z,11.35
2024-05-09T06:28:50.286Z,11.23
2024-05-09T06:32:25.667Z,11.11
2024-05-09T06:35:55.044Z,11.02
2024-05-09T06:39:23.989Z,10.92
2024-05-09T06:42:53.008Z,10.84
2024-05-09T06:46:21.980Z,10.77
2024-05-09T06:49:50.891Z,10.71
2024-05-09T06:53:18.972Z,10.64
2024-05-09T06:56:40.108Z,10.59
2024-05-09T07:00:12.877Z,10.53
2024-05-09T07:03:50.542Z,10.47
2024-05-09T07:07:10.995Z,10.41
2024-05-09T07:10:39.812Z,10.35
2024-05-09T07:14:11.703Z,10.29
2024-05-09T07:17:38.702Z,10.23
2024-05-09T07:20:34.720Z,10.17
2024-05-09T07:24:04.071Z,10.13
2024-05-09T07:27:33.788Z,10.09
2024-05-09T07:31:02.781Z,10.05
2024-05-09T07:34:32.154Z,10.01
2024-05-09T07:37:53.937Z,9.97
2024-05-09T07:41:22.846Z,9.94
2024-05-09T07:44:51.617Z,9.90
2024-05-09T07:53:21.074Z,9.81
2024-05-09T07:55:40.343Z,9.75
2024-05-09T07:58:52.865Z,9.73
2024-05-09T08:02:20.874Z,9.71
2024-05-09T08:05:31.344Z,9.71
2024-05-09T08:09:05.162Z,9.70
2024-05-09T08:12:36.984Z,9.71
2024-05-09T08:16:00.625Z,9.71
2024-05-09T08:19:19.836Z,9.73
2024-05-09T08:22:38.052Z,9.76
2024-05-09T08:25:56.043Z,9.79
2024-05-09T08:29:24.754Z,9.82
2024-05-09T08:32:46.569Z,9.84
2024-05-09T08:36:04.938Z,9.87
2024-05-09T08:39:33.888Z,9.89
2024-05-09T08:43:01.682Z,9.92
2024-05-09T08:46:24.193Z,9.95
2024-05-09T08:49:53.410Z,9.98
2024-05-09T08:53:15.222Z,10.02
2024-05-09T08:56:36.889Z,10.05
2024-05-09T08:59:51.436Z,10.07
2024-05-09T09:03:20.443Z,10.09
2024-05-09T09:06:47.691Z,10.13
2024-05-09T09:10:21.219Z,10.16
2024-05-09T09:13:50.276Z,10.22
2024-05-09T09:17:03.718Z,10.25
2024-05-09T09:20:33.962Z,10.25
2024-05-09T09:24:07.487Z,10.25
2024-05-09T09:27:37.360Z,10.25
2024-05-09T09:30:59.446Z,10.25
2024-05-09T09:34:29.495Z,10.25
2024-05-09T09:37:58.087Z,10.23
2024-05-09T09:41:20.577Z,10.21
2024-05-09T09:44:57.790Z,10.20
2024-05-09T09:48:29.945Z,10.21
2024-05-09T09:51:48.907Z,10.22
2024-05-09T09:55:09.846Z,10.24
2024-05-09T09:58:36.823Z,10.25
2024-05-09T10:02:05.665Z,10.26
2024-05-09T10:05:17.003Z,10.30
2024-05-09T10:08:42.909Z,10.31
2024-05-09T10:11:27.218Z,10.32
2024-05-09T10:14:56.241Z,10.33
2024-05-09T10:18:28.594Z,10.32
2024-05-09T10:21:59.412Z,10.32
2024-05-09T10:25:26.657Z,10.29
2024-05-09T10:28:58.683Z,10.33
2024-05-09T10:32:29.086Z,10.38
2024-05-09T10:35:53.222Z,10.39
2024-05-09T10:39:18.804Z,10.39
2024-05-09T10:42:42.855Z,10.37
2024-05-09T10:46:02.042Z,10.36
2024-05-09T10:49:30.803Z,10.34
2024-05-09T10:52:40.217Z,10.30
2024-05-09T10:56:09.644Z,10.26
2024-05-09T10:59:38.543Z,10.23
2024-05-09T11:03:07.848Z,10.18
2024-05-09T11:06:36.763Z,10.15
2024-05-09T11:10:09.754Z,10.17
2024-05-09T11:13:40.869Z,10.19
2024-05-09T11:17:19.201Z,10.18
2024-05-09T11:20:40.163Z,10.15
2024-05-09T11:24:01.483Z,10.10
2024-05-09T11:27:30.168Z,10.04
2024-05-09T11:30:59.299Z,9.96
2024-05-09T11:34:28.125Z,9.89
2024-05-09T11:37:49.967Z,9.83
2024-05-09T11:41:19.242Z,9.76
2024-05-09T11:44:42.223Z,9.67
2024-05-09T11:48:10.463Z,9.57
2024-05-09T11:51:21.860Z,9.50
2024-05-09T11:54:50.472Z,9.42
2024-05-09T11:58:12.190Z,9.32
2024-05-09T12:01:41.642Z,9.25
2024-05-09T12:05:10.563Z,9.18
2024-05-09T12:08:39.616Z,9.12
2024-05-09T12:12:08.597Z,9.07
2024-05-09T12:15:38.773Z,9.00
2024-05-09T12:18:52.317Z,8.94
2024-05-09T12:22:21.513Z,8.89
2024-05-09T12:25:50.367Z,8.81
2024-05-09T12:29:19.242Z,8.75
2024-05-09T12:32:37.971Z,8.69
2024-05-09T12:36:06.841Z,8.62
2024-05-09T12:39:35.896Z,8.56
2024-05-09T12:42:45.150Z,8.49
2024-05-09T12:46:14.070Z,8.42
2024-05-09T12:49:44.386Z,8.36
2024-05-09T12:53:13.650Z,8.30
2024-05-09T12:56:42.859Z,8.24
2024-05-09T13:00:20.664Z,8.19
2024-05-09T13:03:56.981Z,8.14
2024-05-09T13:07:26.073Z,8.12
2024-05-09T13:10:54.793Z,8.10
2024-05-09T13:14:23.654Z,8.09
2024-05-09T13:17:52.448Z,8.09
2024-05-09T13:21:21.459Z,8.10
2024-05-09T13:24:50.021Z,8.10
2024-05-09T13:28:18.823Z,8.13
2024-05-09T13:31:39.319Z,8.16
2024-05-09T13:35:08.454Z,8.19
2024-05-09T13:38:36.228Z,8.25
2024-05-09T13:41:59.006Z,8.30
2024-05-09T13:45:27.587Z,8.35
2024-05-09T13:48:56.557Z,8.42
2024-05-09T13:52:24.235Z,8.49
2024-05-09T13:55:53.031Z,8.55
2024-05-09T13:59:22.731Z,8.60
2024-05-09T14:02:51.877Z,8.64
2024-05-09T14:06:20.445Z,8.71
2024-05-09T14:09:48.820Z,8.79
2024-05-09T14:13:17.579Z,8.87
2024-05-09T14:16:48.124Z,8.94
2024-05-09T14:20:27.234Z,9.02
2024-05-09T14:24:00.930Z,9.09
2024-05-09T14:27:30.023Z,9.16
2024-05-09T14:30:58.459Z,9.25
2024-05-09T14:34:18.104Z,9.31
2024-05-09T14:37:47.282Z,9.36
2024-05-09T14:41:15.214Z,9.41
2024-05-09T14:44:44.266Z,9.46
2024-05-09T14:48:13.363Z,9.52
2024-05-09T14:51:41.351Z,9.58
2024-05-09T14:54:59.658Z,9.62
2024-05-09T14:58:29.956Z,9.69
2024-05-09T15:01:57.455Z,9.75
2024-05-09T15:05:27.381Z,9.83
2024-05-09T15:08:48.830Z,9.90
2024-05-09T15:12:17.720Z,9.96
2024-05-09T15:15:47.200Z,10.05
2024-05-09T15:19:16.388Z,10.11
2024-05-09T15:22:45.413Z,10.18
2024-05-09T15:26:17.184Z,10.24
2024-05-09T15:29:46.401Z,10.35
2024-05-09T15:33:15.228Z,10.43
2024-05-09T15:36:45.528Z,10.52
2024-05-09T15:40:18.871Z,10.53
2024-05-09T15:43:55.718Z,10.58
2024-05-09T15:47:17.190Z,10.62
2024-05-09T15:50:46.116Z,10.69
2024-05-09T15:54:14.949Z,10.78
2024-05-09T15:57:43.970Z,10.88
2024-05-09T16:01:06.171Z,10.99
2024-05-09T16:04:35.317Z,11.08
2024-05-09T16:07:57.042Z,11.14
2024-05-09T16:11:25.838Z,11.20
2024-05-09T16:14:46.269Z,11.25
2024-05-09T16:18:10.155Z,11.26
2024-05-09T16:21:28.987Z,11.27
2024-05-09T16:24:57.773Z,11.28
2024-05-09T16:28:27.131Z,11.29
2024-05-09T16:31:56.031Z,11.28
2024-05-09T16:35:16.775Z,11.29
2024-05-09T16:38:35.917Z,11.30
2024-05-09T16:41:57.115Z,11.30
2024-05-09T16:45:26.192Z,11.30
2024-05-09T16:48:48.312Z,11.29
2024-05-09T16:52:17.198Z,11.30
2024-05-09T16:55:46.824Z,11.31
2024-05-09T16:59:14.832Z,11.31
2024-05-09T17:02:43.483Z,11.32
2024-05-09T17:06:12.145Z,11.34
2024-05-09T17:09:23.652Z,11.34
2024-05-09T17:12:52.466Z,11.37
2024-05-09T17:16:21.645Z,11.38
2024-05-09T17:19:43.407Z,11.39
2024-05-09T17:23:12.126Z,11.41
2024-05-09T17:26:21.171Z,11.43
2024-05-09T17:29:43.703Z,11.45
2024-05-09T17:33:13.357Z,11.47
2024-05-09T17:36:43.048Z,11.50
2024-05-09T17:40:16.755Z,11.54
2024-05-09T17:43:46.125Z,11.58
2024-05-09T17:47:15.198Z,11.63
2024-05-09T17:50:43.982Z,11.68
2024-05-09T17:54:12.855Z,11.73
2024-05-09T17:57:42.154Z,11.79
2024-05-09T18:01:11.349Z,11.85
2024-05-09T18:04:40.800Z,11.94
2024-05-09T18:08:11.006Z,12.00
2024-05-09T18:11:39.593Z,12.08
2024-05-09T18:15:08.379Z,12.18
2024-05-09T18:18:38.010Z,12.27
2024-05-09T18:22:06.855Z,12.37
2024-05-09T18:25:35.956Z,12.48
2024-05-09T18:28:55.324Z,12.60
2024-05-09T18:32:24.562Z,12.72
2024-05-09T18:35:53.675Z,12.85
2024-05-09T18:39:22.822Z,13.00
2024-05-09T18:42:51.994Z,13.16
2024-05-09T18:46:14.261Z,13.34
2024-05-09T18:49:43.741Z,13.53
2024-05-09T18:53:13.762Z,13.71
2024-05-09T18:56:25.121Z,13.90
2024-05-09T18:59:54.092Z,14.06
2024-05-09T19:03:23.530Z,14.28
2024-05-09T19:06:52.245Z,14.49
2024-05-09T19:10:22.974Z,14.67
2024-05-09T19:13:55.662Z,14.85
2024-05-09T19:17:07.679Z,15.00
2024-05-09T19:20:34.447Z,15.14
2024-05-09T19:23:55.542Z,15.29
2024-05-09T19:27:24.513Z,15.45
2024-05-09T19:30:46.407Z,15.62
2024-05-09T19:34:14.323Z,15.79
2024-05-09T19:37:37.464Z,15.95
2024-05-09T19:41:06.369Z,16.11
2024-05-09T19:44:34.848Z,16.28
2024-05-09T19:48:03.019Z,16.47
2024-05-09T19:51:24.481Z,16.66
2024-05-09T19:54:46.171Z,16.84
2024-05-09T19:58:14.928Z,16.99
2024-05-09T20:01:23.614Z,17.14
2024-05-09T20:04:46.619Z,17.20
2024-05-09T20:08:15.617Z,17.26
2024-05-09T20:11:35.116Z,17.36
2024-05-09T20:14:53.740Z,17.47
2024-05-09T20:18:16.560Z,17.54
2024-05-09T20:21:45.537Z,17.58
2024-05-09T20:25:14.151Z,17.66
2024-05-09T20:28:42.808Z,17.80
2024-05-09T20:32:11.395Z,17.90
2024-05-09T20:35:22.730Z,18.02
2024-05-09T20:38:36.547Z,18.14
2024-05-09T20:41:55.719Z,18.22
2024-05-09T20:45:24.384Z,18.35
2024-05-09T20:48:42.972Z,18.41
2024-05-09T20:52:11.575Z,18.52
2024-05-09T20:55:40.427Z,18.58
2024-05-09T20:59:09.907Z,18.66
2024-05-09T21:02:38.919Z,18.72
2024-05-09T21:06:07.546Z,18.81
2024-05-09T21:09:36.235Z,18.91
2024-05-09T21:12:58.505Z,18.99
2024-05-09T21:16:27.607Z,19.00
2024-05-09T21:19:56.399Z,19.02
2024-05-09T21:23:25.267Z,19.02
2024-05-09T21:26:54.355Z,18.96
2024-05-09T21:30:32.495Z,18.95
2024-05-09T21:34:12.398Z,18.93
2024-05-09T21:37:41.633Z,18.92
2024-05-09T21:41:10.773Z,18.93
2024-05-09T21:44:39.663Z,18.94
2024-05-09T21:48:08.106Z,18.95
2024-05-09T21:51:37.005Z,18.94
2024-05-09T21:55:06.190Z,18.96
2024-05-09T21:58:25.885Z,18.95
2024-05-09T22:01:54.972Z,18.94
2024-05-09T22:05:24.031Z,18.95
2024-05-09T22:08:53.126Z,18.94
2024-05-09T22:12:21.900Z,18.95
2024-05-09T22:15:50.654Z,18.95
2024-05-09T22:19:20.400Z,18.95
2024-05-09T22:22:49.213Z,18.93
2024-05-09T22:26:17.972Z,18.94
2024-05-09T22:29:46.864Z,18.95
2024-05-09T22:33:16.053Z,18.94
2024-05-09T22:36:37.838Z,18.94
2024-05-09T22:40:00.952Z,18.96
2024-05-09T22:43:30.821Z,18.98
2024-05-09T22:47:00.386Z,19.04
2024-05-09T22:50:33.190Z,19.08
2024-05-09T22:54:09.376Z,19.12
2024-05-09T22:57:30.794Z,19.15
2024-05-09T23:00:59.520Z,19.18
2024-05-09T23:04:28.164Z,19.23
2024-05-09T23:07:56.978Z,19.29
2024-05-09T23:11:16.354Z,19.35
2024-05-09T23:14:33.979Z,19.39
2024-05-09T23:18:03.000Z,19.41
2024-05-09T23:21:31.862Z,19.48
2024-05-09T23:25:00.723Z,19.56
2024-05-09T23:28:29.810Z,19.63
2024-05-09T23:31:58.407Z,19.70
2024-05-09T23:35:27.397Z,19.79
2024-05-09T23:38:57.835Z,19.88
2024-05-09T23:42:26.734Z,19.85
2024-05-09T23:45:55.775Z,19.83
2024-05-09T23:49:03.721Z,19.80
2024-05-09T23:52:25.869Z,19.78
2024-05-09T23:55:54.654Z,19.77
2024-05-09T23:59:23.691Z,19.78
